Accueil
METAR-TAF:

METAR-TAF

Aéroports :

Deadhorse, Alaska, États-Unis

latitude: 70-20N, longitude: 150-56W, altitude: 5 m

Observation

Le bulletin a été fait il y a 6 minutes, à 22:45 UTC
Vent 6 kt de sud-ouest
Température -25°C
Humidité 69%
Pression 1007 hPa
Visibilité: 12.9 km
Nuages fragmentés à une hauteur de 300 ft

METAR: PALP 222245Z 22006KT 8SM BKN003 M25/M29 A2974

Heure: 13:51 (22:51 UTC)


TAF: absent

Observations et prévisions météorologiques de plus de 4000 aéroports (messages METAR et TAF).

Les stations disponibles sont représentées par des disques jaunes et rouges sur la carte.

Passer la souris dessus pour voir le nom de la station.

Cliquer dessus pour voir les observations et prévisions météorologiques.

Pour changer de carte: cliquez sur les boutons verts avec une croix noire pour zoomer, sur le bouton vert avec un tiret pour effectuer un zoom arrière, ou sur les flèches vertes pour les cartes adjacentes.


METAR-TAF: